createdAt,value
2022-08-22T00:00:38.681Z,52.80
2022-08-22T00:02:42.336Z,50.95
2022-08-22T00:02:47.891Z,50.35
2022-08-22T00:03:06.939Z,51.41
2022-08-22T00:06:00.212Z,53.30
2022-08-22T00:08:34.965Z,53.26
2022-08-22T00:11:12.660Z,53.25
2022-08-22T00:13:49.339Z,53.50
2022-08-22T00:16:36.249Z,53.71
2022-08-22T00:19:14.916Z,53.94
2022-08-22T00:21:48.777Z,53.78
2022-08-22T00:24:25.913Z,54.47
2022-08-22T00:27:00.307Z,54.01
2022-08-22T00:29:39.527Z,54.24
2022-08-22T00:32:14.389Z,54.10
2022-08-22T00:34:51.657Z,53.91
2022-08-22T00:37:25.786Z,53.37
2022-08-22T00:40:00.027Z,54.04
2022-08-22T00:42:53.893Z,53.68
2022-08-22T00:45:56.074Z,53.71
2022-08-22T00:49:06.372Z,53.97
2022-08-22T00:52:04.481Z,54.65
2022-08-22T00:55:00.222Z,54.72
2022-08-22T00:57:42.886Z,54.80
2022-08-22T01:00:16.642Z,54.68
2022-08-22T01:03:11.777Z,54.22
2022-08-22T01:05:56.228Z,54.83
2022-08-22T01:08:51.514Z,55.06
2022-08-22T01:11:36.947Z,54.94
2022-08-22T01:14:21.099Z,55.48
2022-08-22T01:17:19.692Z,55.03
2022-08-22T01:20:26.850Z,55.18
2022-08-22T01:23:34.977Z,55.26
2022-08-22T01:26:38.720Z,55.75
2022-08-22T01:29:51.931Z,56.01
2022-08-22T01:32:57.083Z,55.56
2022-08-22T01:36:13.227Z,55.71
2022-08-22T01:39:16.362Z,56.58
2022-08-22T01:42:15.874Z,56.69
2022-08-22T01:45:22.238Z,56.80
2022-08-22T01:47:57.194Z,56.17
2022-08-22T01:50:33.302Z,56.71
2022-08-22T01:53:06.903Z,56.40
2022-08-22T01:55:42.322Z,56.93
2022-08-22T01:58:17.974Z,57.16
2022-08-22T02:01:18.388Z,57.17
2022-08-22T02:04:00.519Z,57.25
2022-08-22T02:06:38.681Z,57.41
2022-08-22T02:09:12.576Z,57.26
2022-08-22T02:11:49.339Z,57.09
2022-08-22T02:14:28.247Z,57.86
2022-08-22T02:17:08.237Z,58.14
2022-08-22T02:19:45.689Z,58.42
2022-08-22T02:22:26.845Z,58.45
2022-08-22T02:25:04.423Z,58.22
2022-08-22T02:27:50.138Z,58.72
2022-08-22T02:30:22.757Z,58.61
2022-08-22T02:33:00.306Z,59.05
2022-08-22T02:35:33.534Z,59.33
2022-08-22T02:38:22.332Z,58.88
2022-08-22T02:41:00.687Z,59.72
2022-08-22T02:43:37.573Z,59.88
2022-08-22T02:46:18.326Z,59.29
2022-08-22T02:48:53.722Z,59.73
2022-08-22T02:51:31.092Z,59.75
2022-08-22T02:54:18.640Z,60.21
2022-08-22T02:56:53.536Z,60.15
2022-08-22T02:59:35.007Z,60.37
2022-08-22T03:02:28.966Z,60.60
2022-08-22T03:05:03.823Z,60.81
2022-08-22T03:07:40.482Z,60.92
2022-08-22T03:10:22.917Z,61.13
2022-08-22T03:13:00.482Z,61.05
2022-08-22T03:15:35.821Z,61.89
2022-08-22T03:18:16.279Z,61.26
2022-08-22T03:20:50.458Z,61.65
2022-08-22T03:23:29.167Z,61.69
2022-08-22T03:26:07.960Z,61.95
2022-08-22T03:28:59.220Z,61.76
2022-08-22T03:31:32.479Z,61.98
2022-08-22T03:34:22.617Z,61.60
2022-08-22T03:37:03.537Z,61.72
2022-08-22T03:39:45.003Z,62.01
2022-08-22T03:42:40.834Z,62.13
2022-08-22T03:45:43.026Z,62.86
2022-08-22T03:49:05.870Z,62.28
2022-08-22T03:51:56.270Z,62.31
2022-08-22T03:54:45.441Z,62.59
2022-08-22T03:57:37.750Z,62.98
2022-08-22T04:00:20.531Z,63.22
2022-08-22T04:03:13.180Z,63.09
2022-08-22T04:06:14.796Z,63.04
2022-08-22T04:09:14.181Z,63.15
2022-08-22T04:12:13.331Z,63.22
2022-08-22T04:15:04.344Z,63.41
2022-08-22T04:17:48.755Z,63.42
2022-08-22T04:20:44.888Z,63.60
2022-08-22T04:23:30.805Z,63.97
2022-08-22T04:26:11.924Z,63.46
2022-08-22T04:28:46.175Z,63.54
2022-08-22T04:31:19.374Z,63.75
2022-08-22T04:33:53.302Z,63.38
2022-08-22T04:36:34.672Z,63.73
2022-08-22T04:39:09.908Z,64.03
2022-08-22T04:41:49.912Z,64.43
2022-08-22T04:44:24.927Z,64.46
2022-08-22T04:47:00.411Z,64.05
2022-08-22T04:49:34.992Z,64.09
2022-08-22T04:52:10.706Z,64.18
2022-08-22T04:54:49.486Z,64.00
2022-08-22T04:57:29.401Z,64.06
2022-08-22T05:00:00.400Z,64.52
2022-08-22T05:02:28.791Z,64.23
2022-08-22T05:05:04.518Z,64.96
2022-08-22T05:07:46.882Z,65.02
2022-08-22T05:10:20.790Z,64.39
2022-08-22T05:13:00.485Z,64.13
2022-08-22T05:15:32.666Z,63.78
2022-08-22T05:18:08.232Z,64.26
2022-08-22T05:20:40.643Z,64.71
2022-08-22T05:23:17.459Z,64.53
2022-08-22T05:25:58.319Z,64.72
2022-08-22T05:28:35.950Z,64.72
2022-08-22T05:31:08.232Z,64.31
2022-08-22T05:33:43.250Z,63.23
2022-08-22T05:36:16.459Z,63.58
2022-08-22T05:38:52.507Z,64.78
2022-08-22T05:41:25.459Z,64.19
2022-08-22T05:43:58.586Z,63.94
2022-08-22T05:46:36.553Z,63.55
2022-08-22T05:49:13.555Z,63.73
2022-08-22T05:51:50.841Z,64.24
2022-08-22T05:54:33.739Z,65.18
2022-08-22T05:57:14.417Z,63.89
2022-08-22T05:59:46.776Z,64.39
2022-08-22T06:02:21.818Z,64.79
2022-08-22T06:04:55.124Z,64.57
2022-08-22T06:07:28.834Z,64.55
2022-08-22T06:10:09.417Z,65.08
2022-08-22T06:12:43.252Z,65.43
2022-08-22T06:15:20.986Z,65.08
2022-08-22T06:17:51.972Z,64.30
2022-08-22T06:20:23.300Z,64.76
2022-08-22T06:22:55.521Z,64.98
2022-08-22T06:25:27.493Z,64.91
2022-08-22T06:27:56.697Z,64.65
2022-08-22T06:30:29.811Z,64.55
2022-08-22T06:33:04.636Z,64.12
2022-08-22T06:36:02.571Z,64.05
2022-08-22T06:38:35.617Z,64.02
2022-08-22T06:41:10.563Z,63.78
2022-08-22T06:43:43.599Z,63.79
2022-08-22T06:46:17.049Z,64.06
2022-08-22T06:48:46.238Z,63.78
2022-08-22T06:51:18.091Z,63.80
2022-08-22T06:53:49.273Z,63.61
2022-08-22T06:56:22.655Z,63.12
2022-08-22T06:58:53.961Z,62.68
2022-08-22T07:01:32.101Z,62.63
2022-08-22T07:04:05.059Z,62.51
2022-08-22T07:06:36.937Z,61.83
2022-08-22T07:09:06.729Z,61.43
2022-08-22T07:11:40.390Z,61.49
2022-08-22T07:14:11.806Z,60.72
2022-08-22T07:16:45.056Z,60.62
2022-08-22T07:19:26.528Z,60.99
2022-08-22T07:21:55.111Z,60.64
2022-08-22T07:24:27.438Z,59.71
2022-08-22T07:27:12.601Z,59.93
2022-08-22T07:29:54.673Z,58.43
2022-08-22T07:32:32.190Z,59.16
2022-08-22T07:35:12.523Z,58.94
2022-08-22T07:37:54.709Z,59.28
2022-08-22T07:40:28.514Z,59.33
2022-08-22T07:43:04.392Z,59.36
2022-08-22T07:45:38.482Z,58.69
2022-08-22T07:48:25.120Z,59.62
2022-08-22T07:51:04.053Z,59.68
2022-08-22T07:53:40.585Z,60.25
2022-08-22T07:56:13.684Z,60.63
2022-08-22T07:58:46.054Z,60.66
2022-08-22T08:01:20.585Z,59.62
2022-08-22T08:03:55.480Z,59.76
2022-08-22T08:06:26.250Z,57.95
2022-08-22T08:08:55.775Z,57.36
2022-08-22T08:11:28.109Z,56.24
2022-08-22T08:14:02.658Z,56.02
2022-08-22T08:16:41.021Z,56.16
2022-08-22T08:19:12.982Z,55.07
2022-08-22T08:21:49.491Z,54.04
2022-08-22T08:24:23.079Z,53.84
2022-08-22T08:27:14.716Z,54.83
2022-08-22T08:29:47.398Z,54.23
2022-08-22T08:32:15.830Z,53.74
2022-08-22T08:34:45.672Z,51.32
2022-08-22T08:37:21.630Z,51.86
2022-08-22T08:39:52.757Z,51.42
2022-08-22T08:42:57.731Z,50.95
2022-08-22T08:45:42.423Z,50.18
2022-08-22T08:48:35.615Z,51.19
2022-08-22T08:51:32.854Z,50.38
2022-08-22T08:54:38.472Z,49.70
2022-08-22T08:57:19.570Z,49.37
2022-08-22T09:00:00.346Z,49.47
2022-08-22T09:02:49.510Z,48.79
2022-08-22T09:05:39.344Z,47.53
2022-08-22T09:08:32.687Z,47.50
2022-08-22T09:11:36.905Z,46.58
2022-08-22T09:14:21.332Z,46.17
2022-08-22T09:17:06.875Z,47.18
2022-08-22T09:20:18.009Z,46.94
2022-08-22T09:23:20.783Z,47.39
2022-08-22T09:25:55.396Z,47.30
2022-08-22T09:28:38.540Z,47.76
2022-08-22T09:31:47.553Z,47.33
2022-08-22T09:37:20.726Z,47.38
2022-08-22T09:40:05.622Z,46.03
2022-08-22T09:42:46.412Z,46.18
2022-08-22T09:45:38.797Z,46.14
2022-08-22T09:48:19.649Z,44.81
2022-08-22T09:51:01.654Z,44.91
2022-08-22T09:53:50.927Z,44.40
2022-08-22T09:56:26.854Z,44.98
2022-08-22T09:59:03.670Z,44.01
2022-08-22T10:01:40.258Z,43.74
2022-08-22T10:04:45.854Z,41.19
2022-08-22T10:07:32.580Z,40.74
2022-08-22T10:10:11.454Z,41.12
2022-08-22T10:12:51.063Z,39.56
2022-08-22T10:15:30.274Z,38.80
2022-08-22T10:18:13.895Z,38.34
2022-08-22T10:20:56.284Z,38.03
2022-08-22T10:23:31.187Z,37.99
2022-08-22T10:26:13.011Z,38.31
2022-08-22T10:28:56.648Z,37.89
2022-08-22T10:31:58.362Z,37.79
2022-08-22T10:34:31.896Z,37.94
2022-08-22T10:37:11.813Z,38.43
2022-08-22T10:39:47.692Z,38.38
2022-08-22T10:42:28.599Z,37.37
2022-08-22T10:45:36.177Z,37.59
2022-08-22T10:48:29.659Z,37.75
2022-08-22T10:51:13.019Z,37.83
2022-08-22T10:53:55.983Z,37.24
2022-08-22T10:56:30.286Z,35.85
2022-08-22T10:59:09.601Z,36.97
2022-08-22T11:01:52.409Z,35.96
2022-08-22T11:04:43.455Z,36.01
2022-08-22T11:07:37.285Z,36.38
2022-08-22T11:10:19.003Z,35.69
2022-08-22T11:13:00.531Z,36.40
2022-08-22T11:15:54.254Z,35.05
2022-08-22T11:18:32.181Z,35.36
2022-08-22T11:21:07.253Z,34.12
2022-08-22T11:23:43.137Z,33.70
2022-08-22T11:26:35.718Z,33.53
2022-08-22T11:29:27.595Z,31.89
2022-08-22T11:32:07.718Z,31.76
2022-08-22T11:34:51.646Z,29.68
2022-08-22T11:37:47.019Z,28.00
2022-08-22T11:40:43.546Z,27.92
2022-08-22T11:43:32.560Z,26.79
2022-08-22T11:46:05.258Z,26.51
2022-08-22T11:48:47.041Z,27.52
2022-08-22T11:51:26.354Z,26.13
2022-08-22T11:54:08.753Z,25.95
2022-08-22T11:56:42.930Z,25.50
2022-08-22T11:59:24.551Z,24.64
2022-08-22T12:01:59.375Z,24.95
2022-08-22T12:04:33.629Z,25.80
2022-08-22T12:07:12.865Z,25.52
2022-08-22T12:09:50.769Z,25.63
2022-08-22T12:12:36.775Z,24.86
2022-08-22T12:15:12.463Z,24.63
2022-08-22T12:18:19.909Z,24.62
2022-08-22T12:21:21.667Z,24.86
2022-08-22T12:24:21.184Z,24.86
2022-08-22T12:27:07.812Z,25.13
2022-08-22T12:29:45.818Z,24.46
2022-08-22T12:32:34.013Z,25.61
2022-08-22T12:35:17.361Z,25.35
2022-08-22T12:37:52.760Z,24.85
2022-08-22T12:40:31.916Z,24.58
2022-08-22T12:43:28.889Z,26.93
2022-08-22T12:46:13.571Z,28.68
2022-08-22T12:49:13.813Z,29.73
2022-08-22T12:52:00.915Z,30.17
2022-08-22T12:55:14.458Z,28.55
2022-08-22T12:57:53.936Z,27.55
2022-08-22T13:00:32.771Z,26.37
2022-08-22T13:03:05.690Z,27.16
2022-08-22T13:05:38.368Z,27.63
2022-08-22T13:08:13.737Z,28.92
2022-08-22T13:10:47.950Z,30.78
2022-08-22T13:13:31.616Z,32.27
2022-08-22T13:16:11.711Z,33.76
2022-08-22T13:18:53.398Z,33.94
2022-08-22T13:21:25.284Z,34.01
2022-08-22T13:23:59.918Z,33.18
2022-08-22T13:26:33.993Z,33.28
2022-08-22T13:29:25.074Z,33.37
2022-08-22T13:32:00.459Z,30.76
2022-08-22T13:34:39.839Z,29.34
2022-08-22T13:37:15.924Z,29.07
2022-08-22T13:39:49.186Z,28.36
2022-08-22T13:42:30.742Z,28.23
2022-08-22T13:45:05.380Z,27.21
2022-08-22T13:47:39.527Z,26.88
2022-08-22T13:50:14.014Z,27.23
2022-08-22T13:52:52.252Z,27.45
2022-08-22T13:55:32.175Z,27.13
2022-08-22T13:58:06.930Z,27.13
2022-08-22T14:01:06.349Z,28.55
2022-08-22T14:03:45.586Z,28.15
2022-08-22T14:06:36.898Z,28.07
2022-08-22T14:09:15.230Z,28.31
2022-08-22T14:11:50.004Z,28.75
2022-08-22T14:14:27.196Z,29.06
2022-08-22T14:16:58.075Z,28.86
2022-08-22T14:19:38.262Z,28.32
2022-08-22T14:22:32.532Z,27.52
2022-08-22T14:25:08.611Z,27.90
2022-08-22T14:27:39.983Z,26.63
2022-08-22T14:30:16.740Z,28.08
2022-08-22T14:32:49.618Z,28.20
2022-08-22T14:35:34.583Z,27.73
2022-08-22T14:38:29.871Z,28.44
2022-08-22T14:41:03.647Z,28.30
2022-08-22T14:43:52.899Z,27.71
2022-08-22T14:46:26.660Z,28.40
2022-08-22T14:49:30.663Z,27.33
2022-08-22T14:52:08.942Z,27.62
2022-08-22T14:54:39.244Z,28.69
2022-08-22T14:57:20.054Z,28.40
2022-08-22T14:59:54.914Z,28.87
2022-08-22T15:02:29.242Z,30.55
2022-08-22T15:05:01.528Z,29.37
2022-08-22T15:07:34.076Z,29.26
2022-08-22T15:10:06.867Z,29.90
2022-08-22T15:12:47.598Z,30.55
2022-08-22T15:15:30.542Z,30.15
2022-08-22T15:17:59.331Z,29.82
2022-08-22T15:20:34.143Z,30.65
2022-08-22T15:23:09.789Z,30.46
2022-08-22T15:25:42.143Z,31.32
2022-08-22T15:28:21.084Z,31.93
2022-08-22T15:31:03.453Z,31.47
2022-08-22T15:33:34.390Z,31.32
2022-08-22T15:36:15.771Z,31.26
2022-08-22T15:38:48.542Z,31.37
2022-08-22T15:41:47.565Z,30.74
2022-08-22T15:44:32.135Z,30.74
2022-08-22T15:47:12.076Z,31.39
2022-08-22T15:49:56.408Z,31.30
2022-08-22T15:52:29.636Z,31.54
2022-08-22T15:55:18.722Z,31.15
2022-08-22T15:58:02.896Z,31.00
2022-08-22T16:00:43.505Z,33.98
2022-08-22T16:03:26.307Z,31.45
2022-08-22T16:05:58.061Z,32.77
2022-08-22T16:08:32.954Z,32.00
2022-08-22T16:11:30.969Z,30.85
2022-08-22T16:14:21.324Z,31.74
2022-08-22T16:17:04.352Z,31.34
2022-08-22T16:19:35.791Z,31.16
2022-08-22T16:22:14.061Z,32.68
2022-08-22T16:25:05.826Z,32.12
2022-08-22T16:27:35.701Z,31.96
2022-08-22T16:30:12.992Z,32.67
2022-08-22T16:32:51.339Z,33.60
2022-08-22T16:35:53.266Z,33.34
2022-08-22T16:38:26.978Z,34.00
2022-08-22T16:40:58.509Z,34.69
2022-08-22T16:43:28.811Z,36.76
2022-08-22T16:45:57.730Z,37.30
2022-08-22T16:48:35.451Z,36.93
2022-08-22T16:51:18.471Z,37.23
2022-08-22T16:54:11.799Z,36.51
2022-08-22T16:57:02.219Z,35.94
2022-08-22T16:59:58.876Z,39.17
2022-08-22T17:02:52.378Z,42.50
2022-08-22T17:05:36.542Z,44.69
2022-08-22T17:08:21.266Z,43.68
2022-08-22T17:11:00.276Z,45.71
2022-08-22T17:13:53.109Z,45.20
2022-08-22T17:16:54.190Z,45.76
2022-08-22T17:19:36.220Z,43.75
2022-08-22T17:22:28.850Z,42.25
2022-08-22T17:25:10.597Z,42.81
2022-08-22T17:27:41.549Z,44.50
2022-08-22T17:30:13.866Z,45.41
2022-08-22T17:33:00.042Z,42.65
2022-08-22T17:35:46.610Z,45.86
2022-08-22T17:38:26.468Z,45.06
2022-08-22T17:41:03.860Z,44.20
2022-08-22T17:43:52.124Z,46.75
2022-08-22T17:46:31.801Z,47.05
2022-08-22T17:49:15.309Z,47.22
2022-08-22T17:51:52.305Z,47.60
2022-08-22T17:54:29.600Z,47.23
2022-08-22T17:57:05.920Z,46.50
2022-08-22T17:59:41.366Z,46.08
2022-08-22T18:02:16.336Z,46.14
2022-08-22T18:04:52.842Z,46.08
2022-08-22T18:07:35.826Z,46.01
2022-08-22T18:10:14.390Z,45.67
2022-08-22T18:12:51.863Z,44.54
2022-08-22T18:15:26.692Z,44.90
2022-08-22T18:18:00.280Z,44.46
2022-08-22T18:20:35.807Z,44.06
2022-08-22T18:23:21.754Z,44.27
2022-08-22T18:26:09.015Z,44.00
2022-08-22T18:28:45.071Z,43.92
2022-08-22T18:31:28.233Z,45.05
2022-08-22T18:34:04.235Z,44.70
2022-08-22T18:36:38.939Z,45.23
2022-08-22T18:39:16.362Z,44.69
2022-08-22T18:41:50.311Z,44.67
2022-08-22T18:44:22.741Z,44.97
2022-08-22T18:46:52.203Z,44.65
2022-08-22T18:49:46.897Z,44.64
2022-08-22T18:52:21.870Z,44.28
2022-08-22T18:55:38.122Z,44.50
2022-08-22T18:58:26.711Z,45.00
2022-08-22T19:01:11.408Z,45.21
2022-08-22T19:03:54.209Z,45.54
2022-08-22T19:06:44.141Z,45.75
2022-08-22T19:09:51.289Z,45.52
2022-08-22T19:12:35.814Z,45.90
2022-08-22T19:15:28.023Z,45.69
2022-08-22T19:18:24.899Z,45.54
2022-08-22T19:21:41.128Z,45.55
2022-08-22T19:24:12.626Z,46.03
2022-08-22T19:26:47.723Z,45.78
2022-08-22T19:29:55.790Z,45.81
2022-08-22T19:32:59.088Z,45.31
2022-08-22T19:35:31.799Z,45.36
2022-08-22T19:38:02.742Z,45.67
2022-08-22T19:40:51.235Z,46.09
2022-08-22T19:43:32.786Z,46.85
2022-08-22T19:46:04.748Z,47.25
2022-08-22T19:48:44.694Z,47.41
2022-08-22T19:51:25.840Z,47.61
2022-08-22T19:54:16.460Z,47.40
2022-08-22T19:56:59.552Z,47.40
2022-08-22T19:59:50.958Z,47.30
2022-08-22T20:02:35.571Z,47.97
2022-08-22T20:05:25.550Z,48.33
2022-08-22T20:08:10.420Z,47.53
2022-08-22T20:10:50.706Z,48.38
2022-08-22T20:13:23.471Z,47.79
2022-08-22T20:16:07.966Z,48.41
2022-08-22T20:19:14.053Z,48.73
2022-08-22T20:21:49.256Z,48.34
2022-08-22T20:24:22.485Z,48.48
2022-08-22T20:27:12.689Z,48.07
2022-08-22T20:29:46.529Z,48.28
2022-08-22T20:32:19.296Z,48.71
2022-08-22T20:34:50.318Z,48.52
2022-08-22T20:37:36.064Z,48.13
2022-08-22T20:40:53.449Z,48.63
2022-08-22T20:43:28.473Z,49.28
2022-08-22T20:46:08.107Z,48.98
2022-08-22T20:48:46.052Z,48.86
2022-08-22T20:51:17.679Z,49.01
2022-08-22T20:53:53.121Z,49.01
2022-08-22T20:56:34.453Z,49.27
2022-08-22T20:59:18.217Z,49.58
2022-08-22T21:01:47.046Z,49.54
2022-08-22T21:04:20.777Z,50.02
2022-08-22T21:06:49.136Z,49.02
2022-08-22T21:09:38.851Z,48.53
2022-08-22T21:12:09.275Z,48.54
2022-08-22T21:14:45.912Z,49.28
2022-08-22T21:17:27.060Z,49.12
2022-08-22T21:19:58.467Z,48.77
2022-08-22T21:22:29.153Z,48.52
2022-08-22T21:24:59.541Z,48.39
2022-08-22T21:27:31.459Z,48.74
2022-08-22T21:30:01.082Z,48.69
2022-08-22T21:32:34.463Z,48.57
2022-08-22T21:35:05.804Z,48.69
2022-08-22T21:37:39.841Z,48.71
2022-08-22T21:40:16.822Z,50.01
2022-08-22T21:42:47.329Z,49.86
2022-08-22T21:45:29.661Z,49.99
2022-08-22T21:47:57.892Z,50.05
2022-08-22T21:50:34.586Z,49.89
2022-08-22T21:53:10.208Z,49.54
2022-08-22T21:55:44.390Z,49.54
2022-08-22T21:58:36.625Z,49.72
2022-08-22T22:01:28.305Z,49.49
2022-08-22T22:03:58.210Z,50.03
2022-08-22T22:06:27.965Z,49.82
2022-08-22T22:08:56.494Z,50.02
2022-08-22T22:11:24.613Z,50.10
2022-08-22T22:13:52.908Z,50.22
2022-08-22T22:16:26.532Z,50.18
2022-08-22T22:18:55.025Z,50.16
2022-08-22T22:21:23.022Z,49.89
2022-08-22T22:23:53.625Z,49.87
2022-08-22T22:26:27.094Z,49.44
2022-08-22T22:28:55.176Z,49.36
2022-08-22T22:31:23.117Z,49.76
2022-08-22T22:33:51.258Z,49.92
2022-08-22T22:36:22.836Z,50.82
2022-08-22T22:38:52.383Z,52.17
2022-08-22T22:41:25.240Z,51.20
2022-08-22T22:43:53.768Z,51.03
2022-08-22T22:46:22.140Z,52.04
2022-08-22T22:48:50.032Z,50.90
2022-08-22T22:51:19.167Z,51.28
2022-08-22T22:53:47.751Z,52.03
2022-08-22T22:56:21.500Z,52.48
2022-08-22T22:58:59.051Z,52.71
2022-08-22T23:01:29.032Z,53.07
2022-08-22T23:03:58.604Z,53.21
2022-08-22T23:06:33.634Z,53.42
2022-08-22T23:09:01.573Z,53.08
2022-08-22T23:11:31.844Z,53.39
2022-08-22T23:14:02.657Z,53.26
2022-08-22T23:16:35.174Z,53.90
2022-08-22T23:19:09.251Z,54.30
2022-08-22T23:21:38.340Z,53.59
2022-08-22T23:24:07.076Z,53.77
2022-08-22T23:26:36.121Z,53.38
2022-08-22T23:29:07.058Z,54.24
2022-08-22T23:31:37.115Z,54.56
2022-08-22T23:34:07.008Z,54.83
2022-08-22T23:36:36.293Z,54.57
2022-08-22T23:39:06.684Z,54.80
2022-08-22T23:41:36.325Z,54.82
2022-08-22T23:44:08.578Z,56.28
2022-08-22T23:46:42.431Z,56.26
2022-08-22T23:49:10.427Z,55.37
2022-08-22T23:51:38.938Z,55.19
2022-08-22T23:54:07.498Z,54.96
2022-08-22T23:56:37.802Z,54.95
2022-08-22T23:59:10.254Z,55.98
